createdAt,value
2017-02-19T00:00:00.503Z,50.31
2017-02-19T00:01:11.572Z,50.12
2017-02-19T00:02:20.985Z,50.31
2017-02-19T00:03:31.635Z,50.31
2017-02-19T00:04:40.951Z,50.02
2017-02-19T00:05:50.705Z,50.49
2017-02-19T00:07:00.898Z,50.12
2017-02-19T00:08:10.687Z,50.12
2017-02-19T00:09:20.013Z,50.21
2017-02-19T00:10:29.324Z,50.31
2017-02-19T00:11:39.517Z,50.31
2017-02-19T00:12:49.292Z,50.21
2017-02-19T00:13:59.553Z,50.21
2017-02-19T00:15:09.330Z,50.12
2017-02-19T00:16:19.538Z,50.12
2017-02-19T00:17:29.745Z,50.02
2017-02-19T00:18:39.065Z,50.31
2017-02-19T00:19:48.886Z,50.21
2017-02-19T00:20:58.220Z,50.02
2017-02-19T00:22:08.441Z,50.31
2017-02-19T00:23:17.762Z,50.31
2017-02-19T00:24:27.519Z,50.21
2017-02-19T00:25:37.792Z,50.21
2017-02-19T00:26:47.122Z,50.31
2017-02-19T00:27:56.430Z,50.31
2017-02-19T00:29:06.628Z,50.21
2017-02-19T00:30:16.386Z,50.4
2017-02-19T00:31:26.221Z,50.21
2017-02-19T00:32:36.003Z,50.31
2017-02-19T00:33:45.331Z,50.02
2017-02-19T00:34:55.984Z,50.12
2017-02-19T00:36:06.193Z,50.12
2017-02-19T00:37:15.993Z,50.02
2017-02-19T00:38:25.753Z,50.31
2017-02-19T00:39:35.933Z,50.12
2017-02-19T00:40:46.140Z,50.12
2017-02-19T00:41:55.895Z,50.21
2017-02-19T00:43:06.124Z,50.12
2017-02-19T00:44:16.746Z,50.21
2017-02-19T00:45:26.931Z,50.21
2017-02-19T00:46:36.682Z,50.12
2017-02-19T00:47:45.993Z,50.12
2017-02-19T00:48:55.796Z,50.02
2017-02-19T00:50:05.115Z,50.12
2017-02-19T00:51:14.416Z,50.12
2017-02-19T00:52:24.603Z,50.12
2017-02-19T00:53:34.376Z,50.21
2017-02-19T00:54:44.165Z,50.12
2017-02-19T00:55:53.923Z,50.31
2017-02-19T00:57:03.244Z,50.12
2017-02-19T00:58:13.883Z,50.12
2017-02-19T00:59:23.226Z,50.31
2017-02-19T01:00:32.591Z,50.12
2017-02-19T01:01:41.932Z,49.93
2017-02-19T01:02:51.690Z,50.21
2017-02-19T01:04:01.007Z,50.12
2017-02-19T01:05:11.648Z,50.49
2017-02-19T01:06:22.785Z,50.59
2017-02-19T01:07:32.973Z,50.31
2017-02-19T01:08:43.591Z,50.12
2017-02-19T01:09:53.337Z,49.93
2017-02-19T01:11:02.651Z,50.02
2017-02-19T01:12:12.471Z,50.21
2017-02-19T01:13:22.233Z,50.12
2017-02-19T01:14:31.990Z,50.12
2017-02-19T01:15:41.317Z,50.31
2017-02-19T01:16:51.960Z,50.12
2017-02-19T01:18:01.756Z,50.12
2017-02-19T01:19:11.498Z,50.31
2017-02-19T01:20:21.691Z,50.4
2017-02-19T01:21:31.463Z,50.4
2017-02-19T01:22:40.773Z,50.4
2017-02-19T01:23:50.603Z,50.49
2017-02-19T01:25:00.352Z,50.31
2017-02-19T01:26:10.121Z,50.49
2017-02-19T01:27:20.318Z,50.4
2017-02-19T01:28:30.078Z,50.4
2017-02-19T01:29:40.339Z,50.49
2017-02-19T01:30:50.086Z,50.4
2017-02-19T01:31:59.403Z,50.12
2017-02-19T01:33:08.724Z,50.4
2017-02-19T01:34:18.480Z,50.4
2017-02-19T01:35:28.706Z,50.4
2017-02-19T01:36:38.448Z,50.12
2017-02-19T01:37:48.683Z,50.4
2017-02-19T01:38:59.755Z,50.4
2017-02-19T01:40:09.962Z,50.4
2017-02-19T01:41:20.659Z,50.49
2017-02-19T01:42:30.417Z,50.4
2017-02-19T01:43:39.729Z,50.4
2017-02-19T01:44:49.504Z,50.49
2017-02-19T01:45:59.679Z,50.49
2017-02-19T01:47:09.926Z,50.21
2017-02-19T01:48:20.106Z,50.49
2017-02-19T01:49:31.197Z,50.4
2017-02-19T01:50:40.944Z,50.12
2017-02-19T01:51:51.131Z,50.31
2017-02-19T01:53:01.519Z,50.4
2017-02-19T01:54:11.272Z,50.4
2017-02-19T01:55:21.886Z,50.4
2017-02-19T01:56:31.228Z,50.49
2017-02-19T01:57:41.073Z,50.4
2017-02-19T01:58:51.434Z,50.4
2017-02-19T02:00:00.762Z,50.12
2017-02-19T02:01:10.972Z,50.21
2017-02-19T02:02:20.290Z,50.4
2017-02-19T02:03:30.063Z,50.4
2017-02-19T02:04:40.326Z,50.4
2017-02-19T02:05:49.644Z,50.4
2017-02-19T02:06:59.850Z,50.4
2017-02-19T02:08:10.055Z,50.4
2017-02-19T02:09:19.356Z,50.4
2017-02-19T02:10:29.166Z,50.21
2017-02-19T02:11:38.486Z,50.12
2017-02-19T02:12:48.699Z,50.4
2017-02-19T02:13:58.465Z,50.12
2017-02-19T02:15:07.787Z,50.21
2017-02-19T02:16:17.598Z,50.21
2017-02-19T02:17:27.348Z,50.21
2017-02-19T02:18:37.526Z,50.31
2017-02-19T02:19:48.187Z,49.83
2017-02-19T02:20:57.948Z,49.64
2017-02-19T02:22:07.745Z,50.02
2017-02-19T02:23:17.523Z,50.12
2017-02-19T02:24:27.275Z,49.73
2017-02-19T02:25:37.025Z,50.12
2017-02-19T02:26:46.801Z,49.73
2017-02-19T02:27:56.615Z,49.93
2017-02-19T02:29:06.807Z,49.83
2017-02-19T02:30:17.029Z,50.02
2017-02-19T02:31:26.783Z,50.21
2017-02-19T02:32:36.992Z,50.31
2017-02-19T02:33:46.786Z,50.02
2017-02-19T02:34:56.117Z,50.21
2017-02-19T02:36:06.311Z,50.02
2017-02-19T02:37:15.631Z,49.73
2017-02-19T02:38:25.372Z,49.73
2017-02-19T02:39:36.051Z,50.12
2017-02-19T02:40:46.232Z,50.12
2017-02-19T02:41:55.556Z,50.21
2017-02-19T02:43:05.742Z,49.93
2017-02-19T02:44:15.516Z,50.21
2017-02-19T02:45:25.781Z,50.02
2017-02-19T02:46:35.545Z,49.83
2017-02-19T02:47:46.185Z,49.73
2017-02-19T02:48:55.560Z,49.93
2017-02-19T02:50:05.310Z,49.93
2017-02-19T02:51:15.266Z,49.93
2017-02-19T02:52:25.028Z,49.93
2017-02-19T02:53:34.774Z,49.93
2017-02-19T02:54:45.397Z,49.83
2017-02-19T02:55:55.583Z,49.99
2017-02-19T02:57:04.989Z,49.93
2017-02-19T02:58:15.182Z,49.73
2017-02-19T02:59:24.935Z,50.31
2017-02-19T03:00:34.693Z,49.93
2017-02-19T03:01:44.002Z,50.02
2017-02-19T03:02:53.807Z,49.93
2017-02-19T03:04:03.114Z,50.21
2017-02-19T03:05:12.851Z,49.83
2017-02-19T03:06:23.043Z,50.21
2017-02-19T03:07:33.240Z,49.93
2017-02-19T03:08:42.605Z,49.64
2017-02-19T03:09:51.939Z,49.73
2017-02-19T03:11:01.267Z,49.83
2017-02-19T03:12:10.579Z,50.02
2017-02-19T03:13:20.341Z,49.93
2017-02-19T03:14:29.815Z,49.73
2017-02-19T03:15:39.600Z,49.64
2017-02-19T03:16:49.364Z,49.73
2017-02-19T03:17:58.682Z,49.64
2017-02-19T03:19:08.447Z,50.02
2017-02-19T03:20:17.801Z,49.83
2017-02-19T03:21:27.976Z,49.54
2017-02-19T03:22:38.163Z,49.73
2017-02-19T03:23:47.915Z,49.73
2017-02-19T03:24:58.561Z,49.64
2017-02-19T03:26:07.938Z,49.93
2017-02-19T03:27:17.719Z,49.73
2017-02-19T03:28:27.939Z,49.73
2017-02-19T03:29:38.130Z,49.73
2017-02-19T03:30:47.899Z,49.83
2017-02-19T03:31:57.376Z,49.73
2017-02-19T03:33:07.156Z,49.54
2017-02-19T03:34:16.940Z,49.99
2017-02-19T03:35:26.693Z,49.93
2017-02-19T03:36:35.997Z,49.93
2017-02-19T03:37:45.802Z,49.93
2017-02-19T03:38:55.995Z,49.64
2017-02-19T03:40:05.756Z,49.93
2017-02-19T03:41:15.526Z,49.93
2017-02-19T03:42:24.859Z,49.93
2017-02-19T03:43:34.672Z,49.93
2017-02-19T03:44:44.897Z,50.09
2017-02-19T03:45:54.222Z,49.73
2017-02-19T03:47:05.296Z,49.64
2017-02-19T03:48:15.047Z,49.54
2017-02-19T03:49:24.851Z,49.64
2017-02-19T03:50:34.198Z,49.52
2017-02-19T03:51:43.945Z,49.93
2017-02-19T03:52:53.269Z,49.54
2017-02-19T03:54:03.489Z,49.44
2017-02-19T03:55:14.166Z,49.64
2017-02-19T03:56:23.485Z,49.42
2017-02-19T03:57:33.698Z,49.44
2017-02-19T03:58:43.447Z,49.44
2017-02-19T03:59:53.217Z,49.83
2017-02-19T04:01:02.598Z,49.83
2017-02-19T04:02:12.378Z,49.62
2017-02-19T04:03:22.608Z,49.54
2017-02-19T04:04:31.949Z,49.64
2017-02-19T04:05:41.271Z,50.02
2017-02-19T04:06:51.088Z,49.64
2017-02-19T04:08:00.841Z,49.64
2017-02-19T04:09:10.600Z,49.44
2017-02-19T04:10:20.394Z,49.44
2017-02-19T04:11:31.473Z,49.64
2017-02-19T04:12:40.893Z,49.44
2017-02-19T04:13:50.226Z,49.54
2017-02-19T04:14:59.970Z,49.44
2017-02-19T04:16:09.269Z,49.35
2017-02-19T04:17:19.043Z,49.44
2017-02-19T04:18:28.835Z,49.35
2017-02-19T04:19:38.606Z,49.73
2017-02-19T04:20:47.938Z,49.44
2017-02-19T04:21:57.251Z,49.44
2017-02-19T04:23:07.023Z,49.44
2017-02-19T04:24:16.832Z,49.35
2017-02-19T04:25:26.618Z,49.64
2017-02-19T04:26:36.821Z,49.64
2017-02-19T04:27:46.584Z,49.64
2017-02-19T04:28:56.362Z,49.64
2017-02-19T04:30:06.199Z,49.83
2017-02-19T04:31:16.404Z,49.62
2017-02-19T04:32:26.154Z,49.35
2017-02-19T04:33:35.479Z,49.83
2017-02-19T04:34:45.224Z,49.83
2017-02-19T04:35:54.585Z,49.54
2017-02-19T04:37:04.342Z,49.54
2017-02-19T04:38:14.094Z,49.54
2017-02-19T04:39:23.872Z,49.52
2017-02-19T04:40:34.514Z,49.83
2017-02-19T04:41:44.351Z,49.73
2017-02-19T04:42:54.985Z,49.73
2017-02-19T04:44:05.189Z,49.93
2017-02-19T04:45:14.953Z,49.73
2017-02-19T04:46:24.264Z,49.73
2017-02-19T04:47:34.088Z,49.64
2017-02-19T04:48:44.718Z,49.52
2017-02-19T04:49:55.344Z,49.44
2017-02-19T04:51:05.544Z,49.93
2017-02-19T04:52:15.282Z,49.54
2017-02-19T04:53:24.668Z,49.54
2017-02-19T04:54:34.434Z,49.54
2017-02-19T04:55:45.060Z,49.54
2017-02-19T04:56:54.811Z,49.54
2017-02-19T04:58:05.011Z,49.44
2017-02-19T04:59:14.803Z,49.64
2017-02-19T05:00:25.003Z,49.54
2017-02-19T05:01:35.210Z,49.62
2017-02-19T05:02:45.404Z,49.64
2017-02-19T05:03:55.168Z,49.64
2017-02-19T05:05:05.415Z,49.54
2017-02-19T05:06:15.159Z,49.73
2017-02-19T05:07:24.469Z,49.64
2017-02-19T05:08:33.782Z,49.73
2017-02-19T05:09:43.528Z,49.73
2017-02-19T05:10:53.337Z,49.73
2017-02-19T05:12:03.080Z,49.73
2017-02-19T05:13:13.730Z,49.83
2017-02-19T05:14:23.941Z,49.73
2017-02-19T05:15:33.732Z,49.83
2017-02-19T05:16:43.119Z,49.93
2017-02-19T05:17:52.440Z,49.83
2017-02-19T05:19:01.793Z,49.73
2017-02-19T05:20:11.569Z,49.93
2017-02-19T05:21:21.768Z,49.93
2017-02-19T05:22:32.013Z,49.83
2017-02-19T05:23:41.774Z,49.83
2017-02-19T05:24:52.455Z,49.83
2017-02-19T05:26:01.816Z,49.73
2017-02-19T05:27:11.140Z,49.83
2017-02-19T05:28:21.379Z,49.83
2017-02-19T05:29:31.568Z,49.73
2017-02-19T05:30:40.885Z,49.73
2017-02-19T05:31:50.670Z,49.83
2017-02-19T05:33:00.857Z,49.73
2017-02-19T05:34:11.523Z,49.93
2017-02-19T05:35:21.273Z,49.73
2017-02-19T05:36:31.466Z,49.73
2017-02-19T05:37:42.102Z,49.73
2017-02-19T05:38:52.299Z,49.73
2017-02-19T05:40:02.765Z,49.73
2017-02-19T05:41:12.553Z,49.73
2017-02-19T05:42:22.307Z,49.83
2017-02-19T05:43:32.502Z,49.93
2017-02-19T05:44:42.253Z,49.93
2017-02-19T05:45:52.060Z,49.93
2017-02-19T05:47:01.805Z,49.54
2017-02-19T05:48:11.562Z,50.12
2017-02-19T05:49:21.348Z,49.44
2017-02-19T05:50:31.553Z,49.35
2017-02-19T05:51:41.399Z,49.26
2017-02-19T05:52:50.712Z,49.26
2017-02-19T05:54:00.480Z,49.26
2017-02-19T05:55:10.721Z,49.54
2017-02-19T05:56:20.466Z,49.26
2017-02-19T05:57:30.296Z,49.44
2017-02-19T05:58:40.041Z,49.44
2017-02-19T05:59:49.787Z,49.54
2017-02-19T06:00:59.554Z,49.44
2017-02-19T06:02:09.311Z,49.44
2017-02-19T06:03:19.590Z,49.44
2017-02-19T06:04:28.892Z,49.26
2017-02-19T06:05:38.641Z,49.26
2017-02-19T06:06:48.405Z,49.44
2017-02-19T06:07:58.610Z,49.44
2017-02-19T06:09:08.407Z,49.44
2017-02-19T06:10:18.597Z,49.35
2017-02-19T06:11:29.246Z,49.44
2017-02-19T06:12:39.036Z,49.35
2017-02-19T06:13:49.221Z,49.35
2017-02-19T06:14:59.055Z,49.35
2017-02-19T06:16:08.794Z,49.44
2017-02-19T06:17:18.984Z,49.35
2017-02-19T06:18:28.733Z,49.26
2017-02-19T06:19:38.962Z,49.26
2017-02-19T06:20:48.352Z,49.26
2017-02-19T06:21:57.686Z,49.26
2017-02-19T06:23:07.872Z,49.26
2017-02-19T06:24:18.093Z,49.44
2017-02-19T06:25:28.292Z,49.44
2017-02-19T06:26:38.116Z,49.44
2017-02-19T06:27:48.301Z,49.35
2017-02-19T06:28:58.488Z,49.26
2017-02-19T06:30:08.240Z,49.44
2017-02-19T06:31:17.573Z,49.26
2017-02-19T06:32:27.839Z,49.26
2017-02-19T06:33:38.033Z,49.44
2017-02-19T06:34:47.350Z,49.64
2017-02-19T06:35:57.111Z,49.26
2017-02-19T06:37:07.743Z,49.54
2017-02-19T06:38:17.986Z,49.44
2017-02-19T06:39:27.730Z,49.64
2017-02-19T06:40:37.529Z,49.64
2017-02-19T06:41:47.741Z,49.44
2017-02-19T06:42:57.512Z,49.54
2017-02-19T06:44:07.312Z,49.64
2017-02-19T06:45:17.060Z,49.64
2017-02-19T06:46:26.381Z,49.54
2017-02-19T06:47:36.167Z,49.64
2017-02-19T06:48:45.984Z,49.64
2017-02-19T06:49:55.788Z,49.64
2017-02-19T06:51:06.433Z,49.54
2017-02-19T06:52:16.620Z,49.54
2017-02-19T06:53:25.933Z,49.54
2017-02-19T06:54:36.557Z,49.44
2017-02-19T06:55:46.411Z,49.35
2017-02-19T06:56:56.208Z,49.44
2017-02-19T06:58:06.414Z,49.54
2017-02-19T06:59:16.595Z,49.54
2017-02-19T07:00:26.780Z,49.44
2017-02-19T07:01:37.025Z,49.54
2017-02-19T07:02:46.798Z,49.44
2017-02-19T07:03:56.110Z,49.54
2017-02-19T07:05:06.333Z,49.54
2017-02-19T07:06:15.658Z,49.16
2017-02-19T07:07:25.903Z,49.35
2017-02-19T07:08:35.671Z,49.07
2017-02-19T07:09:45.857Z,49.26
2017-02-19T07:10:55.610Z,49.07
2017-02-19T07:12:04.918Z,48.97
2017-02-19T07:13:15.605Z,48.88
2017-02-19T07:14:25.793Z,48.78
2017-02-19T07:15:35.103Z,49.16
2017-02-19T07:16:44.856Z,48.97
2017-02-19T07:17:54.612Z,49.07
2017-02-19T07:19:04.845Z,49.16
2017-02-19T07:20:14.590Z,48.88
2017-02-19T07:21:24.355Z,49.26
2017-02-19T07:22:34.125Z,49.26
2017-02-19T07:23:43.890Z,48.88
2017-02-19T07:24:55.444Z,48.88
2017-02-19T07:26:04.798Z,48.88
2017-02-19T07:27:14.117Z,48.68
2017-02-19T07:28:23.432Z,48.78
2017-02-19T07:29:33.184Z,48.78
2017-02-19T07:30:42.998Z,48.88
2017-02-19T07:31:52.326Z,48.59
2017-02-19T07:33:02.523Z,48.78
2017-02-19T07:34:12.729Z,48.97
2017-02-19T07:35:22.923Z,48.97
2017-02-19T07:36:32.304Z,48.39
2017-02-19T07:37:42.085Z,48.39
2017-02-19T07:38:51.441Z,49.07
2017-02-19T07:40:01.641Z,48.59
2017-02-19T07:41:11.831Z,48.39
2017-02-19T07:42:21.620Z,48.68
2017-02-19T07:43:32.256Z,48.49
2017-02-19T07:44:41.592Z,48.49
2017-02-19T07:45:51.789Z,48.49
2017-02-19T07:47:01.565Z,48.23
2017-02-19T07:48:11.364Z,48.68
2017-02-19T07:49:20.703Z,48.52
2017-02-19T07:50:30.924Z,48.42
2017-02-19T07:51:40.671Z,48.8
2017-02-19T07:52:50.420Z,48.23
2017-02-19T07:53:59.794Z,48.21
2017-02-19T07:55:09.539Z,48.23
2017-02-19T07:56:19.292Z,48.61
2017-02-19T07:57:29.045Z,48.13
2017-02-19T07:58:38.823Z,48.33
2017-02-19T07:59:49.071Z,48.23
2017-02-19T08:00:58.835Z,48.23
2017-02-19T08:02:09.030Z,48.23
2017-02-19T08:03:18.370Z,48.42
2017-02-19T08:04:28.124Z,48.23
2017-02-19T08:05:38.377Z,48.23
2017-02-19T08:06:48.155Z,48.04
2017-02-19T08:07:58.338Z,47.85
2017-02-19T08:09:08.101Z,48.23
2017-02-19T08:10:18.286Z,47.94
2017-02-19T08:11:27.663Z,47.85
2017-02-19T08:12:36.972Z,47.85
2017-02-19T08:13:46.738Z,48.04
2017-02-19T08:14:56.062Z,48.23
2017-02-19T08:16:05.808Z,48.04
2017-02-19T08:17:16.216Z,48.13
2017-02-19T08:18:26.407Z,48.13
2017-02-19T08:19:36.179Z,48.13
2017-02-19T08:20:45.513Z,47.75
2017-02-19T08:21:56.146Z,47.66
2017-02-19T08:23:05.956Z,47.85
2017-02-19T08:24:15.727Z,47.18
2017-02-19T08:25:25.481Z,47.37
2017-02-19T08:26:34.803Z,47.37
2017-02-19T08:27:45.044Z,47.37
2017-02-19T08:28:54.849Z,47.56
2017-02-19T08:30:04.610Z,47.56
2017-02-19T08:31:14.371Z,47.85
2017-02-19T08:32:23.685Z,47.75
2017-02-19T08:33:33.427Z,47.75
2017-02-19T08:34:43.775Z,47.47
2017-02-19T08:35:53.960Z,47.47
2017-02-19T08:37:03.276Z,47.56
2017-02-19T08:38:13.469Z,47.75
2017-02-19T08:39:22.774Z,47.56
2017-02-19T08:40:33.015Z,47.27
2017-02-19T08:41:43.203Z,47.47
2017-02-19T08:42:52.968Z,47.27
2017-02-19T08:44:02.727Z,47.08
2017-02-19T08:45:12.514Z,47.56
2017-02-19T08:46:21.883Z,47.08
2017-02-19T08:47:31.216Z,47.08
2017-02-19T08:48:40.546Z,47.27
2017-02-19T08:49:50.299Z,47.37
2017-02-19T08:51:00.059Z,46.99
2017-02-19T08:52:09.873Z,47.08
2017-02-19T08:53:19.180Z,46.8
2017-02-19T08:54:29.391Z,46.61
2017-02-19T08:55:39.153Z,46.72
2017-02-19T08:56:48.900Z,46.8
2017-02-19T08:57:59.122Z,46.89
2017-02-19T08:59:08.882Z,47.01
2017-02-19T09:00:18.629Z,47.11
2017-02-19T09:01:28.382Z,46.82
2017-02-19T09:02:38.149Z,46.82
2017-02-19T09:03:47.985Z,46.72
2017-02-19T09:04:58.168Z,46.53
2017-02-19T09:06:08.363Z,46.15
2017-02-19T09:07:17.686Z,46.63
2017-02-19T09:08:27.868Z,46.63
2017-02-19T09:09:37.707Z,46.34
2017-02-19T09:10:47.484Z,46.44
2017-02-19T09:11:56.797Z,46.53
2017-02-19T09:13:07.026Z,46.63
2017-02-19T09:14:17.666Z,46.44
2017-02-19T09:15:27.925Z,46.25
2017-02-19T09:16:37.697Z,46.92
2017-02-19T09:17:47.511Z,46.63
2017-02-19T09:18:57.266Z,46.63
2017-02-19T09:20:07.453Z,46.75
2017-02-19T09:21:17.274Z,46.72
2017-02-19T09:22:26.596Z,46.75
2017-02-19T09:23:36.361Z,46.17
2017-02-19T09:24:46.126Z,46.27
2017-02-19T09:25:55.443Z,46.27
2017-02-19T09:27:05.760Z,46.08
2017-02-19T09:28:15.070Z,45.98
2017-02-19T09:29:24.853Z,45.98
2017-02-19T09:30:35.034Z,46.17
2017-02-19T09:31:45.665Z,45.89
2017-02-19T09:32:55.485Z,45.89
2017-02-19T09:34:06.118Z,45.79
2017-02-19T09:35:16.753Z,46.08
2017-02-19T09:36:26.501Z,45.89
2017-02-19T09:37:36.703Z,46.08
2017-02-19T09:38:46.948Z,45.7
2017-02-19T09:39:57.176Z,45.7
2017-02-19T09:41:06.931Z,45.7
2017-02-19T09:42:16.691Z,45.7
2017-02-19T09:43:26.445Z,45.6
2017-02-19T09:44:36.266Z,45.7
2017-02-19T09:45:46.918Z,45.79
2017-02-19T09:46:57.115Z,45.7
2017-02-19T09:48:06.866Z,45.89
2017-02-19T09:49:16.175Z,45.6
2017-02-19T09:50:25.968Z,45.89
2017-02-19T09:51:35.302Z,45.6
2017-02-19T09:52:44.631Z,45.7
2017-02-19T09:53:54.404Z,45.41
2017-02-19T09:55:04.159Z,45.12
2017-02-19T09:56:13.974Z,45.41
2017-02-19T09:57:23.739Z,45.31
2017-02-19T09:58:33.064Z,45.6
2017-02-19T09:59:42.814Z,45.6
2017-02-19T10:00:52.571Z,44.93
2017-02-19T10:02:01.940Z,45.15
2017-02-19T10:03:11.247Z,45.03
2017-02-19T10:04:20.568Z,44.95
2017-02-19T10:05:30.327Z,44.65
2017-02-19T10:06:40.080Z,44.76
2017-02-19T10:07:49.892Z,44.76
2017-02-19T10:09:00.101Z,44.86
2017-02-19T10:10:09.876Z,44.76
2017-02-19T10:11:19.188Z,44.86
2017-02-19T10:12:28.517Z,44.86
2017-02-19T10:13:38.327Z,44.86
2017-02-19T10:14:47.639Z,45.15
2017-02-19T10:15:57.406Z,44.95
2017-02-19T10:17:06.715Z,44.29
2017-02-19T10:18:16.044Z,44.57
2017-02-19T10:19:25.865Z,44.38
2017-02-19T10:20:35.609Z,44.38
2017-02-19T10:21:45.366Z,44.57
2017-02-19T10:22:55.559Z,44.48
2017-02-19T10:24:06.186Z,44.57
2017-02-19T10:25:15.988Z,44.57
2017-02-19T10:26:25.343Z,43.9
2017-02-19T10:27:35.125Z,43.9
2017-02-19T10:28:44.478Z,44.09
2017-02-19T10:29:54.240Z,43.9
2017-02-19T10:31:04.483Z,43.9
2017-02-19T10:32:15.121Z,44.09
2017-02-19T10:33:25.320Z,44.19
2017-02-19T10:34:35.072Z,44.19
2017-02-19T10:35:45.703Z,44.19
2017-02-19T10:36:56.399Z,44.19
2017-02-19T10:38:05.712Z,44.19
2017-02-19T10:39:15.462Z,43.8
2017-02-19T10:40:25.217Z,44.09
2017-02-19T10:41:34.986Z,43.9
2017-02-19T10:42:45.337Z,44.09
2017-02-19T10:43:54.664Z,43.9
2017-02-19T10:45:04.415Z,44.09
2017-02-19T10:46:14.168Z,44.09
2017-02-19T10:47:23.482Z,44
2017-02-19T10:48:32.855Z,44.09
2017-02-19T10:49:43.070Z,44.09
2017-02-19T10:50:52.833Z,44
2017-02-19T10:52:03.018Z,44
2017-02-19T10:53:13.703Z,44.09
2017-02-19T10:54:23.517Z,44
2017-02-19T10:55:33.730Z,44.19
2017-02-19T10:56:43.919Z,44.19
2017-02-19T10:57:53.676Z,44.57
2017-02-19T10:59:04.308Z,44.38
2017-02-19T11:00:14.563Z,44.38
2017-02-19T11:01:23.886Z,44.48
2017-02-19T11:02:34.948Z,44.48
2017-02-19T11:03:44.266Z,44.55
2017-02-19T11:04:53.586Z,44.55
2017-02-19T11:06:04.300Z,44.55
2017-02-19T11:07:14.504Z,44.45
2017-02-19T11:08:24.279Z,44.48
2017-02-19T11:09:34.908Z,44.55
2017-02-19T11:10:45.105Z,44.55
2017-02-19T11:11:55.374Z,44.45
2017-02-19T11:13:04.722Z,44.17
2017-02-19T11:14:14.919Z,44.55
2017-02-19T11:15:24.689Z,44.17
2017-02-19T11:16:34.427Z,44.65
2017-02-19T11:17:45.325Z,44.45
2017-02-19T11:18:55.068Z,44.45
2017-02-19T11:20:04.383Z,44.55
2017-02-19T11:21:14.170Z,44.45
2017-02-19T11:22:24.809Z,44.55
2017-02-19T11:23:35.172Z,44.45
2017-02-19T11:24:45.374Z,44.17
2017-02-19T11:25:55.132Z,44.55
2017-02-19T11:27:04.453Z,44.26
2017-02-19T11:28:14.675Z,44.36
2017-02-19T11:29:24.492Z,44.45
2017-02-19T11:30:34.233Z,44.36
2017-02-19T11:31:43.557Z,44.17
2017-02-19T11:32:53.779Z,44.17
2017-02-19T11:34:04.411Z,44.55
2017-02-19T11:35:14.216Z,44.17
2017-02-19T11:36:23.982Z,44.17
2017-02-19T11:37:33.303Z,44.36
2017-02-19T11:38:43.063Z,44.26
2017-02-19T11:39:52.810Z,44.17
2017-02-19T11:41:02.763Z,44.17
2017-02-19T11:42:12.516Z,44.45
2017-02-19T11:43:22.713Z,44.36
2017-02-19T11:44:32.914Z,44.45
2017-02-19T11:45:42.240Z,44.65
2017-02-19T11:46:52.045Z,44.36
2017-02-19T11:48:01.807Z,44.36
2017-02-19T11:49:11.130Z,44.45
2017-02-19T11:50:21.336Z,44.36
2017-02-19T11:51:31.108Z,44.17
2017-02-19T11:52:41.350Z,44.45
2017-02-19T11:53:50.663Z,44.65
2017-02-19T11:54:59.993Z,44.36
2017-02-19T11:56:10.613Z,44.45
2017-02-19T11:57:20.368Z,44.36
2017-02-19T11:58:30.181Z,44.55
2017-02-19T11:59:40.384Z,44.36
2017-02-19T12:00:50.134Z,44.55
2017-02-19T12:01:59.464Z,44.55
2017-02-19T12:03:09.241Z,44.36
2017-02-19T12:04:19.050Z,44.38
2017-02-19T12:05:28.838Z,44.36
2017-02-19T12:06:39.032Z,44.36
2017-02-19T12:07:48.788Z,44.17
2017-02-19T12:08:58.568Z,43.8
2017-02-19T12:10:08.520Z,44.55
2017-02-19T12:11:18.272Z,44.55
2017-02-19T12:12:28.466Z,44.55
2017-02-19T12:13:38.203Z,44.55
2017-02-19T12:14:47.563Z,44.36
2017-02-19T12:15:58.248Z,44.45
2017-02-19T12:17:08.003Z,44.45
2017-02-19T12:18:17.768Z,44.36
2017-02-19T12:19:27.954Z,44.45
2017-02-19T12:20:37.270Z,44.19
2017-02-19T12:21:47.131Z,44.55
2017-02-19T12:22:57.349Z,44.36
2017-02-19T12:24:06.666Z,44.36
2017-02-19T12:25:15.988Z,44.57
2017-02-19T12:26:25.743Z,44.19
2017-02-19T12:27:35.118Z,44.57
2017-02-19T12:28:44.867Z,44.36
2017-02-19T12:29:55.056Z,44.17
2017-02-19T12:31:04.819Z,44.17
2017-02-19T12:32:14.593Z,43.9
2017-02-19T12:33:24.863Z,44.36
2017-02-19T12:34:34.625Z,43.88
2017-02-19T12:35:44.426Z,44.55
2017-02-19T12:36:54.195Z,44.55
2017-02-19T12:38:03.956Z,44.55
2017-02-19T12:39:13.745Z,44.36
2017-02-19T12:40:23.051Z,44.45
2017-02-19T12:41:32.382Z,44.45
2017-02-19T12:42:42.575Z,44.36
2017-02-19T12:43:52.386Z,44.36
2017-02-19T12:45:02.303Z,44.65
2017-02-19T12:46:11.604Z,44.55
2017-02-19T12:47:21.789Z,44.55
2017-02-19T12:48:31.124Z,44.55
2017-02-19T12:49:40.854Z,44.36
2017-02-19T12:50:51.096Z,44.55
2017-02-19T12:52:01.730Z,44.45
2017-02-19T12:53:11.047Z,44.55
2017-02-19T12:54:20.360Z,44.36
2017-02-19T12:55:30.578Z,44.36
2017-02-19T12:56:39.946Z,44.36
2017-02-19T12:57:50.144Z,44.36
2017-02-19T12:59:00.777Z,44.36
2017-02-19T13:00:10.531Z,44.55
2017-02-19T13:01:19.871Z,44.36
2017-02-19T13:02:29.239Z,44.55
2017-02-19T13:03:39.456Z,44.55
2017-02-19T13:04:49.661Z,44.36
2017-02-19T13:05:59.412Z,44.36
2017-02-19T13:07:09.159Z,44.55
2017-02-19T13:08:18.969Z,44.45
2017-02-19T13:09:29.167Z,44.55
2017-02-19T13:10:38.481Z,44.45
2017-02-19T13:11:48.678Z,44.36
2017-02-19T13:12:58.431Z,44.36
2017-02-19T13:14:07.811Z,44.55
2017-02-19T13:15:18.455Z,44.45
2017-02-19T13:16:27.775Z,44.45
2017-02-19T13:17:37.080Z,44.55
2017-02-19T13:18:46.382Z,44.55
2017-02-19T13:19:55.757Z,44.55
2017-02-19T13:21:06.844Z,44.36
2017-02-19T13:22:16.609Z,44.55
2017-02-19T13:23:27.677Z,44.55
2017-02-19T13:24:37.427Z,44.36
2017-02-19T13:25:46.940Z,44.45
2017-02-19T13:26:56.253Z,44.45
2017-02-19T13:28:06.035Z,44.17
2017-02-19T13:29:15.807Z,44.45
2017-02-19T13:30:26.013Z,44.36
2017-02-19T13:31:35.819Z,44.34
2017-02-19T13:32:46.003Z,44.45
2017-02-19T13:33:55.752Z,45.03
2017-02-19T13:35:05.066Z,44.45
2017-02-19T13:36:15.280Z,45.03
2017-02-19T13:37:24.672Z,44.93
2017-02-19T13:38:34.894Z,45.03
2017-02-19T13:39:44.650Z,45.12
2017-02-19T13:40:54.848Z,44.55
2017-02-19T13:42:05.023Z,44.36
2017-02-19T13:43:15.259Z,44.45
2017-02-19T13:44:25.011Z,44.55
2017-02-19T13:45:34.332Z,44.36
2017-02-19T13:46:44.128Z,44.45
2017-02-19T13:47:53.879Z,44.55
2017-02-19T13:49:03.687Z,44.55
2017-02-19T13:50:14.341Z,45.03
2017-02-19T13:51:24.117Z,44.93
2017-02-19T13:52:34.327Z,44.55
2017-02-19T13:53:44.086Z,44.93
2017-02-19T13:54:54.354Z,44.84
2017-02-19T13:56:04.118Z,44.91
2017-02-19T13:57:14.329Z,44.81
2017-02-19T13:58:24.550Z,44.62
2017-02-19T13:59:35.174Z,44.62
2017-02-19T14:00:44.548Z,44.72
2017-02-19T14:01:53.857Z,45.01
2017-02-19T14:03:03.618Z,44.81
2017-02-19T14:04:13.362Z,45.01
2017-02-19T14:05:23.549Z,45.01
2017-02-19T14:06:33.828Z,45.2
2017-02-19T14:07:44.035Z,44.91
2017-02-19T14:08:53.351Z,44.81
2017-02-19T14:10:03.105Z,45.2
2017-02-19T14:11:12.441Z,45.2
2017-02-19T14:12:22.283Z,45.58
2017-02-19T14:13:32.056Z,45.67
2017-02-19T14:14:41.848Z,45.48
2017-02-19T14:15:52.038Z,45.58
2017-02-19T14:17:02.672Z,45.67
2017-02-19T14:18:12.036Z,45.48
2017-02-19T14:19:22.241Z,45.39
2017-02-19T14:20:31.990Z,45.39
2017-02-19T14:21:41.764Z,45.48
2017-02-19T14:22:51.510Z,45.29
2017-02-19T14:24:00.904Z,45.48
2017-02-19T14:25:11.097Z,45.48
2017-02-19T14:26:20.866Z,45.2
2017-02-19T14:27:31.077Z,45.29
2017-02-19T14:28:41.263Z,45.48
2017-02-19T14:29:51.933Z,45.48
2017-02-19T14:31:01.693Z,45.39
2017-02-19T14:32:11.888Z,45.48
2017-02-19T14:33:22.064Z,45.48
2017-02-19T14:34:32.253Z,45.67
2017-02-19T14:35:42.527Z,45.58
2017-02-19T14:36:52.284Z,45.67
2017-02-19T14:38:02.068Z,45.48
2017-02-19T14:39:12.257Z,45.39
2017-02-19T14:40:22.876Z,45.67
2017-02-19T14:41:32.693Z,45.87
2017-02-19T14:42:42.485Z,45.67
2017-02-19T14:43:51.824Z,45.67
2017-02-19T14:45:02.011Z,45.77
2017-02-19T14:46:11.766Z,45.58
2017-02-19T14:47:22.009Z,45.48
2017-02-19T14:48:32.232Z,45.87
2017-02-19T14:49:42.006Z,45.87
2017-02-19T14:50:51.794Z,45.96
2017-02-19T14:52:01.998Z,46.06
2017-02-19T14:53:12.249Z,45.96
2017-02-19T14:54:22.898Z,45.77
2017-02-19T14:55:32.695Z,45.77
2017-02-19T14:56:42.019Z,45.87
2017-02-19T14:57:51.775Z,46.15
2017-02-19T14:59:01.157Z,46.53
2017-02-19T15:00:10.908Z,46.44
2017-02-19T15:01:20.214Z,45.87